Time;durP1;ratioP1;P1;durP2;ratioP2;P2;SDS_P1;SDS_P2;PMS_P1;PMS_P2;Temp;Humidity;BMP_temperature;BMP_pressure;BME280_temperature;BME280_humidity;BME280_pressure;Samples;Min_cycle;Max_cycle;Signal;HPM_P1;HPM_P2
2022/03/26 00:01:54;;;;;;;;;8.00;7.25;;;;;16.93;21.98;101634.34;146604;617;46031;-69
2022/03/26 00:04:46;;;;;;;;;12.50;9.00;;;;;16.92;22.35;101649.19;146608;700;46008;-71
2022/03/26 00:07:39;;;;;;;;;10.25;8.50;;;;;16.89;22.37;101663.87;146604;576;46017;-70
2022/03/26 00:10:31;;;;;;;;;8.50;7.25;;;;;16.83;21.99;101652.31;146607;565;47008;-69
2022/03/26 00:13:23;;;;;;;;;10.50;9.00;;;;;16.81;21.87;101667.06;146603;581;46016;-69
2022/03/26 00:16:15;;;;;;;;;7.75;6.75;;;;;16.79;22.09;101650.41;146609;578;46020;-70
2022/03/26 00:19:07;;;;;;;;;7.00;7.00;;;;;16.76;22.10;101642.44;146603;569;47010;-70
2022/03/26 00:21:59;;;;;;;;;10.50;7.00;;;;;16.73;22.53;101642.28;146603;598;46919;-71
2022/03/26 00:24:52;;;;;;;;;10.25;9.25;;;;;16.72;22.02;101650.94;146603;599;47012;-68
2022/03/26 00:27:45;;;;;;;;;10.00;9.00;;;;;16.72;22.87;101652.66;146596;569;46020;-69
2022/03/26 00:30:37;;;;;;;;;11.50;8.00;;;;;16.72;22.29;101647.44;146600;588;46016;-68
2022/03/26 00:33:29;;;;;;;;;8.50;6.00;;;;;16.71;22.22;101650.87;146603;651;46020;-70
2022/03/26 00:36:22;;;;;;;;;11.50;10.50;;;;;16.72;22.81;101673.63;146605;591;46010;-70
2022/03/26 00:39:13;;;;;;;;;8.50;7.00;;;;;16.69;23.13;101655.16;146607;701;46020;-69
2022/03/26 00:42:08;;;;;;;;;12.25;10.75;;;;;16.66;23.15;101691.69;146602;576;47010;-72
2022/03/26 00:45:00;;;;;;;;;12.75;9.25;;;;;16.61;23.47;101674.06;146606;581;47008;-70
2022/03/26 00:47:52;;;;;;;;;11.25;8.25;;;;;16.54;23.57;101666.81;146605;569;46912;-70
2022/03/26 00:50:44;;;;;;;;;8.00;6.75;;;;;16.49;23.12;101678.78;146608;631;46020;-69
2022/03/26 00:53:37;;;;;;;;;10.50;9.00;;;;;16.49;23.56;101673.56;146609;592;46010;-71
2022/03/26 00:56:28;;;;;;;;;9.50;7.50;;;;;16.44;22.80;101661.97;146605;578;46020;-70
2022/03/26 00:59:21;;;;;;;;;10.50;8.00;;;;;16.43;22.75;101698.59;146603;608;46016;-77
2022/03/26 01:02:13;;;;;;;;;11.00;9.75;;;;;16.37;23.21;101668.69;146607;630;46020;-77
2022/03/26 01:05:06;;;;;;;;;12.75;10.00;;;;;16.39;23.06;101690.59;146605;620;46018;-78
2022/03/26 01:07:59;;;;;;;;;11.50;9.25;;;;;15.70;23.12;101580.34;146605;565;46020;-78
2022/03/26 01:10:51;;;;;;;;;10.25;9.00;;;;;16.34;23.36;101710.44;146601;572;46016;-75
2022/03/26 01:13:43;;;;;;;;;11.25;10.50;;;;;16.29;23.84;101697.97;146608;590;46008;-73
2022/03/26 01:16:35;;;;;;;;;11.00;9.75;;;;;16.25;24.09;101686.47;146605;581;47010;-73
2022/03/26 01:19:27;;;;;;;;;12.25;11.25;;;;;16.24;24.10;101699.50;146607;579;46020;-72
2022/03/26 01:22:20;;;;;;;;;12.50;12.00;;;;;16.19;24.05;101707.16;146601;653;46017;-72
2022/03/26 01:25:12;;;;;;;;;15.50;11.75;;;;;16.15;24.33;101700.88;146606;618;47008;-74
2022/03/26 01:28:04;;;;;;;;;10.50;9.00;;;;;16.12;24.01;101692.00;146603;617;46016;-72
2022/03/26 01:30:57;;;;;;;;;12.50;10.75;;;;;16.07;24.59;101706.59;146607;628;46020;-72
2022/03/26 01:33:50;;;;;;;;;12.00;10.75;;;;;16.07;24.36;101706.59;146603;597;46016;-71
2022/03/26 01:36:42;;;;;;;;;12.75;9.75;;;;;16.05;25.06;101729.22;146607;694;46020;-69
2022/03/26 01:39:35;;;;;;;;;16.00;11.50;;;;;16.05;24.49;101710.88;146601;640;46033;-69
2022/03/26 01:42:27;;;;;;;;;12.00;9.00;;;;;16.03;24.95;101705.56;146609;577;45021;-69
2022/03/26 01:45:20;;;;;;;;;12.25;10.50;;;;;15.29;24.70;101583.66;146606;564;46026;-69
2022/03/26 01:48:12;;;;;;;;;11.25;8.25;;;;;16.01;24.65;101724.63;146606;604;46020;-69
2022/03/26 01:51:14;;;;;;;;;11.50;9.50;;;;;16.01;24.66;101737.72;146601;628;46017;-69
2022/03/26 01:54:06;;;;;;;;;10.75;9.50;;;;;15.99;24.85;101727.19;146604;624;46020;-70
2022/03/26 01:56:59;;;;;;;;;12.00;11.25;;;;;15.94;24.89;101740.06;146603;653;46017;-69
2022/03/26 01:59:51;;;;;;;;;11.25;8.75;;;;;15.94;25.20;101736.53;146607;574;47008;-70
2022/03/26 02:02:45;;;;;;;;;5.00;3.50;;;;;15.91;24.67;101750.38;146602;588;47010;-69
2022/03/26 02:05:37;;;;;;;;;13.00;11.00;;;;;15.92;25.71;101756.53;146601;576;47021;-68
2022/03/26 02:08:29;;;;;;;;;14.75;13.50;;;;;15.91;25.28;101765.19;146603;650;47012;-68
2022/03/26 02:11:21;;;;;;;;;11.50;10.50;;;;;15.86;25.51;101788.53;146606;615;46020;-70
2022/03/26 02:14:15;;;;;;;;;13.00;11.00;;;;;15.85;25.39;101801.50;146602;690;46016;-69
2022/03/26 02:17:07;;;;;;;;;13.75;10.75;;;;;15.79;25.37;101807.34;146609;575;46020;-70
2022/03/26 02:20:04;;;;;;;;;13.25;10.00;;;;;15.80;25.52;101818.72;146604;607;47010;-69
2022/03/26 02:22:56;;;;;;;;;12.75;9.00;;;;;15.79;25.69;101838.72;146602;581;47008;-69
2022/03/26 02:25:48;;;;;;;;;10.75;10.75;;;;;15.75;25.58;101836.78;146601;572;46016;-70
2022/03/26 02:28:41;;;;;;;;;15.00;11.50;;;;;15.74;26.05;101832.41;146605;631;46021;-70
2022/03/26 02:31:33;;;;;;;;;9.50;8.50;;;;;15.70;25.61;101860.13;146604;574;46023;-72
2022/03/26 02:34:26;;;;;;;;;10.75;9.50;;;;;15.70;25.46;101848.78;146607;593;46009;-74
2022/03/26 02:37:18;;;;;;;;;6.50;5.50;;;;;15.72;26.02;101856.69;146604;610;46016;-73
2022/03/26 02:40:12;;;;;;;;;13.00;11.50;;;;;15.74;25.69;101866.41;146607;732;46020;-73
2022/03/26 02:43:04;;;;;;;;;12.00;9.25;;;;;15.76;26.12;101871.69;146604;564;46017;-74
2022/03/26 02:45:56;;;;;;;;;8.50;8.50;;;;;15.78;26.74;101894.47;146608;593;46008;-73
2022/03/26 02:48:49;;;;;;;;;8.00;7.75;;;;;15.78;27.34;101910.16;146606;578;46010;-73
2022/03/26 02:51:41;;;;;;;;;5.25;5.25;;;;;15.77;28.01;101923.19;146605;571;46021;-74
2022/03/26 02:54:35;;;;;;;;;10.25;10.25;;;;;15.69;27.05;101936.75;146603;575;46016;-73
2022/03/26 02:57:27;;;;;;;;;11.25;10.50;;;;;15.67;29.85;101940.12;146603;566;46021;-73
2022/03/26 03:00:19;;;;;;;;;9.25;7.00;;;;;15.64;31.31;101933.00;146599;577;46016;-71
2022/03/26 03:03:12;;;;;;;;;9.50;9.50;;;;;15.62;33.43;101944.19;146608;571;46008;-71
2022/03/26 03:06:04;;;;;;;;;11.75;10.00;;;;;15.58;33.71;101947.50;146603;593;46016;-71
2022/03/26 03:08:56;;;;;;;;;15.00;14.00;;;;;15.50;39.33;101968.00;146605;589;46020;-71
2022/03/26 03:11:48;;;;;;;;;13.75;11.75;;;;;15.34;43.85;101950.62;146604;569;46030;-72
2022/03/26 03:14:41;;;;;;;;;17.50;15.75;;;;;15.13;43.60;101963.47;146608;564;46020;-72
2022/03/26 03:17:33;;;;;;;;;17.50;16.50;;;;;14.93;45.77;101962.44;146606;565;46010;-74
2022/03/26 03:20:25;;;;;;;;;19.50;16.25;;;;;14.75;46.73;101964.94;146605;600;46012;-71
2022/03/26 03:23:17;;;;;;;;;17.50;15.00;;;;;14.67;48.10;101988.84;146607;583;45912;-71
2022/03/26 03:26:13;;;;;;;;;19.00;16.25;;;;;14.65;44.74;101985.28;146606;567;46020;-70
2022/03/26 03:29:06;;;;;;;;;16.00;14.00;;;;;14.66;43.21;102007.94;146603;716;46016;-70
2022/03/26 03:31:58;;;;;;;;;15.00;13.75;;;;;14.65;43.37;102001.81;146604;671;46020;-70
2022/03/26 03:34:51;;;;;;;;;13.25;13.25;;;;;14.67;43.37;102001.88;146603;612;46031;-70
2022/03/26 03:37:43;;;;;;;;;21.00;19.00;;;;;14.69;42.82;102022.06;146608;595;46008;-70
2022/03/26 03:40:36;;;;;;;;;49.50;39.50;;;;;14.67;43.26;102031.53;146601;606;47011;-69
2022/03/26 03:43:28;;;;;;;;;30.75;27.00;;;;;14.63;44.03;102037.37;146606;570;47008;-69
2022/03/26 03:46:20;;;;;;;;;28.50;25.75;;;;;14.50;46.32;102040.97;146603;563;46016;-69
2022/03/26 03:49:13;;;;;;;;;16.75;15.75;;;;;14.32;43.59;102050.37;146604;581;46021;-69
2022/03/26 03:52:06;;;;;;;;;22.50;20.75;;;;;14.08;44.12;102057.69;146606;577;46010;-68
2022/03/26 03:54:58;;;;;;;;;23.75;20.25;;;;;13.80;43.34;102063.91;146606;574;46020;-71
2022/03/26 03:57:50;;;;;;;;;14.25;14.00;;;;;13.54;42.29;102069.25;146604;603;46016;-69
2022/03/26 04:00:42;;;;;;;;;30.25;27.75;;;;;13.30;41.81;102080.00;146606;569;46012;-70
2022/03/26 04:03:34;;;;;;;;;18.00;17.25;;;;;13.14;41.75;102079.78;146604;711;46010;-70
2022/03/26 04:06:27;;;;;;;;;31.75;27.75;;;;;13.06;43.04;102086.25;146628;616;45020;-72
2022/03/26 04:09:20;;;;;;;;;16.50;15.25;;;;;12.97;43.83;102081.34;146627;617;45016;-69
2022/03/26 04:12:13;;;;;;;;;18.50;14.75;;;;;12.84;44.23;102081.37;146626;664;45021;-68
2022/03/26 04:15:05;;;;;;;;;29.50;25.00;;;;;12.70;44.10;102091.78;146627;588;45012;-69
2022/03/26 04:17:57;;;;;;;;;16.25;12.25;;;;;12.57;44.29;102096.09;146630;585;45017;-69
2022/03/26 04:20:50;;;;;;;;;14.50;12.75;;;;;12.40;45.08;102113.22;146627;654;45026;-70
2022/03/26 04:23:42;;;;;;;;;14.25;13.25;;;;;12.31;42.77;102115.22;146630;573;45023;-70
2022/03/26 04:26:35;;;;;;;;;42.50;35.75;;;;;12.30;43.47;102126.41;146624;577;45016;-70
2022/03/26 04:29:27;;;;;;;;;17.75;15.00;;;;;12.28;45.26;102122.81;146628;590;45020;-70
2022/03/26 04:32:19;;;;;;;;;18.50;14.00;;;;;12.23;46.12;102123.38;146628;612;45029;-69
2022/03/26 04:35:12;;;;;;;;;16.25;15.75;;;;;12.21;46.15;102131.87;146627;679;45020;-69
2022/03/26 04:38:06;;;;;;;;;23.00;22.25;;;;;12.19;48.12;102139.59;146628;577;45010;-69
2022/03/26 04:40:57;;;;;;;;;24.25;21.50;;;;;12.12;46.84;102142.59;146627;608;45021;-69
2022/03/26 04:43:50;;;;;;;;;21.00;19.25;;;;;11.99;46.63;102146.06;146625;586;45912;-69
2022/03/26 04:46:41;;;;;;;;;27.25;22.25;;;;;11.89;49.04;102143.59;146627;594;46008;-69
2022/03/26 04:49:34;;;;;;;;;29.50;24.75;;;;;11.83;49.27;102156.16;146626;569;45016;-69
2022/03/26 04:52:25;;;;;;;;;40.25;32.00;;;;;11.78;50.94;102157.56;146629;570;45027;-69
2022/03/26 04:55:18;;;;;;;;;43.00;34.75;;;;;11.77;49.26;102159.25;146626;643;45017;-69
2022/03/26 04:58:10;;;;;;;;;44.00;34.75;;;;;11.89;50.56;102164.41;146628;622;45020;-70
2022/03/26 05:01:02;;;;;;;;;34.25;30.00;;;;;12.05;50.44;102168.94;146628;636;45912;-70
2022/03/26 05:03:54;;;;;;;;;40.25;33.25;;;;;12.36;53.48;102178.84;146628;566;45021;-70
2022/03/26 05:06:47;;;;;;;;;35.50;30.00;;;;;12.94;50.85;102174.88;146604;550;46016;-70
2022/03/26 05:09:39;;;;;;;;;30.75;28.50;;;;;13.57;48.34;102178.87;146608;576;47008;-70
2022/03/26 05:12:31;;;;;;;;;29.50;29.50;;;;;14.30;46.69;102185.97;146601;589;46016;-68
2022/03/26 05:15:24;;;;;;;;;36.00;29.00;;;;;14.99;46.86;102189.13;146603;589;46918;-71
2022/03/26 05:18:17;;;;;;;;;30.75;29.25;;;;;15.53;45.35;102195.59;146606;618;46016;-70
2022/03/26 05:21:09;;;;;;;;;32.00;27.75;;;;;15.90;44.49;102200.22;146604;633;46918;-70
2022/03/26 05:24:01;;;;;;;;;37.00;30.75;;;;;16.34;44.17;102197.28;146603;662;47011;-70
2022/03/26 05:26:53;;;;;;;;;31.25;29.25;;;;;16.65;43.60;102203.19;146604;640;47008;-70
2022/03/26 05:29:46;;;;;;;;;52.50;43.25;;;;;16.78;43.78;102201.28;146602;602;47010;-71
2022/03/26 05:32:38;;;;;;;;;34.75;31.25;;;;;16.88;42.74;102209.59;146606;567;46020;-70
2022/03/26 05:35:31;;;;;;;;;31.25;28.25;;;;;16.90;43.23;102210.59;146608;646;46010;-71
2022/03/26 05:38:23;;;;;;;;;32.50;28.25;;;;;16.91;45.25;102209.75;146609;571;45020;-70
2022/03/26 05:41:15;;;;;;;;;30.50;27.00;;;;;16.84;43.91;102212.06;146604;591;46017;-69
2022/03/26 05:44:08;;;;;;;;;31.50;27.00;;;;;16.81;43.48;102211.91;146603;626;46020;-69
2022/03/26 05:47:00;;;;;;;;;30.50;24.50;;;;;16.83;45.54;102212.91;146602;569;47010;-70
2022/03/26 05:49:52;;;;;;;;;24.75;21.75;;;;;16.81;44.20;102227.63;146603;641;47008;-70
2022/03/26 05:52:45;;;;;;;;;27.00;23.50;;;;;16.80;44.62;102225.84;146603;656;46016;-70
2022/03/26 05:55:37;;;;;;;;;26.75;25.75;;;;;16.87;44.04;102226.16;146606;618;46021;-70
2022/03/26 05:58:29;;;;;;;;;32.50;26.50;;;;;16.96;43.75;102219.63;146606;590;46912;-70
2022/03/26 06:01:22;;;;;;;;;33.25;27.75;;;;;17.08;43.41;102225.47;146605;564;46020;-71
2022/03/26 06:04:14;;;;;;;;;29.25;25.75;;;;;17.22;44.20;102223.50;146606;564;46010;-71
2022/03/26 06:07:07;;;;;;;;;27.50;23.00;;;;;17.26;44.51;102228.09;146606;576;46020;-69
2022/03/26 06:09:59;;;;;;;;;26.00;23.75;;;;;17.27;44.09;102229.87;146605;576;46024;-69
2022/03/26 06:12:51;;;;;;;;;25.50;24.25;;;;;17.26;44.37;102237.69;146605;635;46008;-69
2022/03/26 06:15:43;;;;;;;;;25.75;22.25;;;;;17.29;44.08;102237.84;146602;573;47010;-68
2022/03/26 06:18:35;;;;;;;;;26.50;24.00;;;;;17.42;43.27;102237.59;146608;603;46020;-69
2022/03/26 06:21:29;;;;;;;;;28.25;24.75;;;;;17.63;43.29;102240.31;146605;586;46912;-69
2022/03/26 06:24:22;;;;;;;;;24.25;22.00;;;;;17.82;42.88;102235.94;146607;610;47008;-69
2022/03/26 06:27:15;;;;;;;;;27.75;22.25;;;;;17.98;42.03;102239.34;146602;569;47010;-71
2022/03/26 06:30:08;;;;;;;;;31.75;27.50;;;;;17.25;42.31;102086.44;146606;578;46008;-70
2022/03/26 06:33:00;;;;;;;;;24.00;22.00;;;;;18.28;41.42;102243.25;146601;628;46017;-70
2022/03/26 06:35:52;;;;;;;;;25.50;24.00;;;;;18.45;41.26;102253.66;146604;569;46020;-68
2022/03/26 06:38:45;;;;;;;;;40.00;30.50;;;;;18.60;42.23;102257.81;146603;569;46017;-71
2022/03/26 06:41:41;;;;;;;;;22.75;21.75;;;;;18.65;42.29;102264.13;146603;613;47008;-71
2022/03/26 06:44:33;;;;;;;;;22.25;20.00;;;;;17.73;41.15;102100.87;146603;582;47010;-70
2022/03/26 06:47:25;;;;;;;;;24.75;18.00;;;;;18.66;41.76;102263.28;146608;569;46008;-70
2022/03/26 06:50:17;;;;;;;;;24.75;22.25;;;;;18.69;41.00;102271.28;146604;769;46016;-70
2022/03/26 06:53:09;;;;;;;;;19.50;15.25;;;;;18.77;40.20;102274.31;146605;633;46020;-69
2022/03/26 06:56:01;;;;;;;;;19.00;16.50;;;;;18.75;40.46;102276.84;146605;706;46016;-68
2022/03/26 06:58:54;;;;;;;;;21.75;19.75;;;;;18.79;42.69;102276.16;146604;617;47012;-70
2022/03/26 07:01:46;;;;;;;;;21.25;20.75;;;;;18.81;41.48;102284.09;146603;609;46017;-69
2022/03/26 07:04:38;;;;;;;;;20.50;19.50;;;;;18.79;41.30;102284.06;146606;571;46020;-72
2022/03/26 07:07:30;;;;;;;;;21.00;18.00;;;;;18.80;41.15;102291.09;146605;588;46016;-70
2022/03/26 07:10:23;;;;;;;;;22.50;18.25;;;;;18.84;40.75;102294.75;146604;590;46008;-71
2022/03/26 07:13:15;;;;;;;;;23.75;21.00;;;;;18.92;41.49;102296.88;146603;674;46016;-70
2022/03/26 07:16:08;;;;;;;;;25.25;22.75;;;;;18.92;42.67;102296.88;146606;619;46009;-72
2022/03/26 07:19:00;;;;;;;;;22.00;20.75;;;;;18.91;43.08;102302.97;146603;565;46016;-71
2022/03/26 07:21:52;;;;;;;;;17.00;11.50;;;;;18.92;40.70;102304.75;146607;567;46020;-70
2022/03/26 07:24:44;;;;;;;;;18.00;17.00;;;;;18.95;40.18;102303.09;146605;610;46010;-73
2022/03/26 07:27:37;;;;;;;;;20.25;18.75;;;;;19.09;40.45;102304.56;146605;634;47008;-71
2022/03/26 07:30:29;;;;;;;;;22.50;20.25;;;;;19.21;41.13;102299.81;146604;583;46912;-72
2022/03/26 07:33:21;;;;;;;;;21.25;19.75;;;;;19.34;41.21;102304.72;146604;595;46008;-76
2022/03/26 07:36:13;;;;;;;;;23.25;19.25;;;;;19.39;42.80;102307.56;146603;596;46012;-76
2022/03/26 07:39:05;;;;;;;;;21.50;19.50;;;;;19.42;41.70;102304.16;146607;580;46008;-76
2022/03/26 07:41:57;;;;;;;;;25.75;22.50;;;;;19.39;41.35;102318.97;146599;614;47012;-72
2022/03/26 07:44:49;;;;;;;;;21.75;18.25;;;;;19.27;40.63;102321.09;146607;613;46008;-71
2022/03/26 07:47:41;;;;;;;;;17.50;17.50;;;;;19.12;40.15;102320.47;146603;599;46032;-70
2022/03/26 07:50:33;;;;;;;;;20.25;15.50;;;;;18.99;40.32;102328.66;146606;594;46020;-71
2022/03/26 07:53:27;;;;;;;;;21.25;19.00;;;;;18.90;40.12;102326.53;146603;591;47011;-70
2022/03/26 07:56:19;;;;;;;;;22.00;22.00;;;;;18.82;40.43;102330.59;146609;585;45021;-70
2022/03/26 07:59:12;;;;;;;;;21.50;19.00;;;;;18.78;39.76;102339.16;146603;601;46010;-74
2022/03/26 08:02:03;;;;;;;;;21.00;20.75;;;;;18.71;40.88;102340.59;146603;585;47008;-73
2022/03/26 08:04:56;;;;;;;;;21.50;17.25;;;;;18.61;41.33;102333.16;146602;563;46016;-72
2022/03/26 08:07:48;;;;;;;;;15.25;14.50;;;;;18.54;40.41;102341.59;146605;666;46008;-69
2022/03/26 08:10:40;;;;;;;;;23.75;20.75;;;;;18.45;40.59;102328.94;146604;571;47010;-81
2022/03/26 08:13:33;;;;;;;;;21.75;19.00;;;;;18.49;41.02;102335.22;146605;594;46008;-79
2022/03/26 08:16:26;;;;;;;;;22.75;20.25;;;;;18.59;40.87;102337.41;146605;601;46031;-80
2022/03/26 08:19:18;;;;;;;;;21.25;18.00;;;;;18.71;40.65;102345.84;146608;581;46012;-82
2022/03/26 08:22:10;;;;;;;;;21.25;18.50;;;;;18.82;40.35;102339.38;146606;619;46010;-81
2022/03/26 08:25:02;;;;;;;;;25.25;22.50;;;;;18.88;40.16;102339.63;146607;620;46008;-80
2022/03/26 08:27:54;;;;;;;;;20.75;18.00;;;;;18.95;40.24;102329.38;146605;587;46016;-80
2022/03/26 08:30:46;;;;;;;;;20.25;19.00;;;;;18.89;40.17;102336.16;146606;585;46021;-79
2022/03/26 08:33:39;;;;;;;;;24.75;20.75;;;;;18.70;41.13;102339.69;146601;618;46912;-80
2022/03/26 08:36:30;;;;;;;;;17.00;12.50;;;;;18.54;40.62;102338.97;146601;603;47008;-80
2022/03/26 08:39:23;;;;;;;;;25.50;25.25;;;;;18.48;41.02;102339.59;146606;606;46010;-81
2022/03/26 08:42:15;;;;;;;;;50.75;40.25;;;;;18.55;39.67;102343.38;146607;582;45020;-77
2022/03/26 08:45:08;;;;;;;;;22.00;19.75;;;;;18.54;38.58;102345.13;146605;578;46913;-79
2022/03/26 08:48:00;;;;;;;;;24.50;19.50;;;;;18.50;38.31;102348.41;146606;671;47008;-80
2022/03/26 08:50:53;;;;;;;;;16.50;16.25;;;;;18.38;37.12;102345.22;146601;590;47010;-78
2022/03/26 08:53:45;;;;;;;;;20.50;18.00;;;;;18.22;37.94;102348.91;146607;583;46008;-72
2022/03/26 08:56:37;;;;;;;;;18.25;17.00;;;;;18.18;37.44;102352.22;146601;687;47010;-83
2022/03/26 08:59:29;;;;;;;;;17.00;16.00;;;;;18.11;38.18;102351.03;146604;599;47008;-75
2022/03/26 09:02:21;;;;;;;;;21.00;18.75;;;;;18.11;36.87;102342.28;146603;581;46010;-74
2022/03/26 09:05:16;;;;;;;;;20.25;17.50;;;;;18.15;36.40;102346.81;146603;625;47008;-77
2022/03/26 09:08:08;;;;;;;;;21.00;19.00;;;;;18.22;36.72;102348.91;146603;570;46913;-76
2022/03/26 09:11:00;;;;;;;;;20.75;18.25;;;;;18.23;37.27;102335.84;146605;583;46020;-73
2022/03/26 09:13:53;;;;;;;;;20.00;18.50;;;;;18.22;36.26;102333.12;146605;594;46017;-73
2022/03/26 09:16:44;;;;;;;;;20.25;17.50;;;;;18.23;36.13;102332.34;146609;570;46020;-74
2022/03/26 09:19:37;;;;;;;;;17.50;16.50;;;;;18.32;35.42;102335.37;146604;627;46016;-72
2022/03/26 09:22:29;;;;;;;;;19.25;17.25;;;;;18.41;36.20;102335.78;146605;628;46021;-74
2022/03/26 09:25:21;;;;;;;;;19.00;16.25;;;;;18.50;35.48;102335.28;146600;585;46016;-73
2022/03/26 09:28:14;;;;;;;;;19.00;16.25;;;;;18.56;35.02;102330.28;146608;577;46008;-75
2022/03/26 09:31:06;;;;;;;;;17.25;14.25;;;;;18.66;34.88;102329.91;146605;595;46016;-80
2022/03/26 09:33:58;;;;;;;;;19.75;17.00;;;;;18.73;34.57;102320.56;146607;666;47008;-76
2022/03/26 09:36:50;;;;;;;;;19.25;18.50;;;;;18.74;33.29;102331.97;146604;569;46913;-74
2022/03/26 09:39:42;;;;;;;;;16.25;15.25;;;;;18.83;34.45;102320.12;146608;611;47008;-74
2022/03/26 09:42:36;;;;;;;;;23.50;17.00;;;;;18.93;33.71;102330.19;146603;569;46912;-83
2022/03/26 09:45:28;;;;;;;;;17.00;16.50;;;;;18.95;36.67;102325.03;146606;609;47009;-74
2022/03/26 09:48:20;;;;;;;;;15.25;14.75;;;;;18.90;37.68;102322.19;146600;569;47012;-73
2022/03/26 09:51:18;;;;;;;;;21.00;20.25;;;;;18.86;37.54;102314.13;146605;581;46009;-74
2022/03/26 09:54:11;;;;;;;;;18.25;17.50;;;;;18.87;39.59;102324.69;146595;584;47012;-74
2022/03/26 09:57:03;;;;;;;;;21.25;18.00;;;;;18.89;39.74;102312.50;146607;596;46020;-74
2022/03/26 09:59:56;;;;;;;;;20.00;18.25;;;;;18.87;38.60;102324.69;146603;610;46011;-73
2022/03/26 10:02:48;;;;;;;;;22.25;18.75;;;;;18.83;38.58;102317.50;146604;592;47008;-74
2022/03/26 10:05:40;;;;;;;;;18.25;18.25;;;;;18.78;40.84;102313.78;146600;753;47013;-75
2022/03/26 10:08:33;;;;;;;;;20.75;17.50;;;;;18.73;38.48;102314.44;146606;569;46020;-73
2022/03/26 10:11:25;;;;;;;;;22.00;19.00;;;;;18.72;40.48;102304.69;146602;569;46016;-75
2022/03/26 10:14:18;;;;;;;;;25.00;20.25;;;;;18.67;42.05;102309.78;146606;619;47008;-75
2022/03/26 10:17:25;;;;;;;;;21.25;19.75;;;;;18.72;40.39;102305.59;146603;590;46029;-75
2022/03/26 10:20:18;;;;;;;;;25.50;22.00;;;;;18.71;41.33;102301.19;146608;584;46021;-75
2022/03/26 10:23:10;;;;;;;;;25.00;21.25;;;;;17.83;41.63;102141.56;146603;595;46016;-74
2022/03/26 10:26:14;;;;;;;;;21.50;20.25;;;;;18.73;40.49;102299.56;146603;643;46020;-74
2022/03/26 10:29:06;;;;;;;;;16.75;16.75;;;;;18.85;41.76;102294.81;146604;683;46011;-75
2022/03/26 10:35:08;;;;;;;;;17.75;15.50;;;;;19.21;40.39;102289.28;146604;564;46016;-74
2022/03/26 10:38:03;;;;;;;;;20.75;19.00;;;;;19.45;40.34;102286.75;146605;603;46008;-74
2022/03/26 10:41:05;;;;;;;;;18.75;16.75;;;;;19.59;39.50;102288.22;146607;613;45912;-74
2022/03/26 10:44:10;;;;;;;;;21.50;18.00;;;;;19.74;38.94;102282.66;146605;687;46021;-74
2022/03/26 10:47:04;;;;;;;;;22.25;20.00;;;;;20.02;39.43;102286.34;146604;610;46016;-74
2022/03/26 10:50:00;;;;;;;;;21.25;17.75;;;;;20.13;39.64;102285.00;146609;565;46008;-75
2022/03/26 10:52:52;;;;;;;;;22.25;18.75;;;;;20.05;38.60;102268.91;146602;587;46016;-74
2022/03/26 10:55:44;;;;;;;;;20.00;18.00;;;;;19.98;38.81;102266.00;146606;584;47012;-74
2022/03/26 10:58:37;;;;;;;;;21.25;18.25;;;;;19.91;38.77;102266.63;146601;564;46017;-75
2022/03/26 11:01:29;;;;;;;;;18.50;15.25;;;;;19.90;38.42;102262.19;146604;583;46020;-74
2022/03/26 11:04:21;;;;;;;;;22.00;17.75;;;;;19.84;39.43;102262.84;146604;668;46013;-66
2022/03/26 11:07:13;;;;;;;;;20.25;19.75;;;;;19.82;39.01;102252.28;146607;583;46008;-77
2022/03/26 11:10:09;;;;;;;;;21.00;19.25;;;;;19.84;38.44;102239.16;146604;594;46010;-75
2022/03/26 11:13:03;;;;;;;;;21.25;17.50;;;;;19.76;38.27;102240.63;146604;564;46021;-75
2022/03/26 11:16:12;;;;;;;;;24.25;20.50;;;;;19.73;38.75;102245.78;146604;569;46016;-75
2022/03/26 11:19:37;;;;;;;;;17.50;15.50;;;;;19.76;39.44;102235.34;146604;630;46009;-75
2022/03/26 11:23:06;;;;;;;;;22.50;18.50;;;;;19.74;39.03;102231.75;146605;585;46016;-75
2022/03/26 11:26:38;;;;;;;;;21.25;17.00;;;;;19.71;37.99;102231.62;146608;641;46020;-74
2022/03/26 11:30:09;;;;;;;;;21.25;19.25;;;;;19.64;39.42;102229.59;146603;588;47913;-75
2022/03/26 11:33:13;;;;;;;;;17.50;16.00;;;;;19.41;38.91;102223.41;146608;571;46008;-75
2022/03/26 11:36:08;;;;;;;;;19.25;16.25;;;;;19.27;40.20;102225.53;146603;687;46010;-73
2022/03/26 11:39:13;;;;;;;;;21.75;20.00;;;;;19.25;40.02;102224.56;146603;652;46020;-74
2022/03/26 11:42:10;;;;;;;;;18.75;15.75;;;;;19.28;41.34;102220.34;146604;580;46016;-73
2022/03/26 11:52:35;;;;;;;;;18.00;17.00;;;;;19.44;41.73;102216.56;146607;629;46020;-73
2022/03/26 11:55:28;;;;;;;;;15.75;13.25;;;;;19.49;41.52;102199.22;146604;604;46016;-73
2022/03/26 11:58:26;;;;;;;;;21.25;18.25;;;;;19.70;40.59;102211.44;146604;580;47008;-71
2022/03/26 12:01:20;;;;;;;;;23.25;21.00;;;;;19.62;42.01;102206.75;146599;596;47012;-72
2022/03/26 12:04:24;;;;;;;;;20.00;19.50;;;;;19.54;40.36;102207.31;146602;589;46021;-73
2022/03/26 12:07:18;;;;;;;;;17.75;16.75;;;;;19.39;41.27;102199.72;146603;580;46010;-72
2022/03/26 12:10:13;;;;;;;;;22.00;17.50;;;;;18.35;40.43;102050.97;146608;600;46020;-72
2022/03/26 12:13:06;;;;;;;;;26.50;20.00;;;;;19.19;40.44;102213.78;146602;606;46016;-72
2022/03/26 12:16:06;;;;;;;;;20.00;18.50;;;;;19.15;41.65;102200.53;146608;571;46008;-73
2022/03/26 12:18:58;;;;;;;;;19.00;16.75;;;;;19.25;41.46;102201.81;146600;564;46016;-73
2022/03/26 12:21:54;;;;;;;;;15.50;15.25;;;;;19.21;41.64;102209.50;146610;652;46008;-68
2022/03/26 12:24:46;;;;;;;;;18.50;15.75;;;;;19.09;43.25;102183.63;146600;609;46016;-72
2022/03/26 12:27:44;;;;;;;;;18.50;18.50;;;;;18.76;42.28;102181.44;146608;598;46008;-73
2022/03/26 12:30:36;;;;;;;;;20.25;16.75;;;;;18.30;42.02;102192.59;146601;589;46025;-73
2022/03/26 12:33:29;;;;;;;;;21.75;20.50;;;;;18.08;43.92;102188.16;146608;581;46008;-72
2022/03/26 12:36:24;;;;;;;;;18.00;15.75;;;;;17.96;44.27;102190.22;146599;581;47010;-74
2022/03/26 12:39:16;;;;;;;;;15.50;14.50;;;;;17.78;45.55;102177.19;146608;602;46020;-72
2022/03/26 12:42:08;;;;;;;;;18.00;16.25;;;;;17.66;45.29;102167.03;146602;612;46017;-72
2022/03/26 12:45:00;;;;;;;;;16.50;14.50;;;;;17.41;46.30;102175.47;146608;574;46020;-73
2022/03/26 12:47:53;;;;;;;;;20.50;18.00;;;;;17.30;46.17;102164.47;146602;611;46016;-72
2022/03/26 12:50:48;;;;;;;;;23.00;19.00;;;;;17.30;44.05;102167.09;146606;570;46020;-73
2022/03/26 12:53:43;;;;;;;;;17.75;15.75;;;;;17.43;44.48;102154.56;146604;628;47010;-74
2022/03/26 12:56:35;;;;;;;;;17.75;15.25;;;;;17.55;46.41;102163.00;146608;569;46009;-73
2022/03/26 12:59:27;;;;;;;;;17.75;17.00;;;;;17.59;45.31;102156.16;146602;598;47010;-72
2022/03/26 13:02:18;;;;;;;;;21.75;18.25;;;;;17.64;45.51;102152.94;146606;621;46008;-73
2022/03/26 13:05:12;;;;;;;;;18.25;17.25;;;;;17.74;45.87;102151.59;146604;577;46016;-73
2022/03/26 13:08:04;;;;;;;;;18.75;15.00;;;;;17.81;45.18;102137.97;146604;563;46008;-73
2022/03/26 13:10:56;;;;;;;;;18.50;15.00;;;;;17.79;43.68;102155.37;146605;594;46011;-73
2022/03/26 13:13:55;;;;;;;;;20.00;18.75;;;;;17.73;45.30;102126.22;146604;575;46020;-73
2022/03/26 13:16:47;;;;;;;;;20.50;18.75;;;;;17.62;45.64;102136.22;146604;638;46912;-73
2022/03/26 13:19:45;;;;;;;;;17.50;15.25;;;;;17.58;44.18;102131.66;146603;570;46026;-73
2022/03/26 13:22:39;;;;;;;;;15.00;15.00;;;;;17.45;43.85;102135.47;146606;592;46012;-73